createdAt,value
2019-01-20T00:00:49.625Z,-2.50
2019-01-20T00:03:19.035Z,-2.60
2019-01-20T00:05:48.451Z,-2.50
2019-01-20T00:08:18.211Z,-2.50
2019-01-20T00:10:49.898Z,-2.50
2019-01-20T00:13:19.223Z,-2.40
2019-01-20T00:15:54.316Z,-2.40
2019-01-20T00:18:21.620Z,-2.30
2019-01-20T00:20:51.464Z,-2.20
2019-01-20T00:23:24.692Z,-2.30
2019-01-20T00:25:54.572Z,-2.30
2019-01-20T00:28:23.887Z,-2.30
2019-01-20T00:30:53.324Z,-2.30
2019-01-20T00:33:22.726Z,-2.30
2019-01-20T00:35:54.181Z,-2.30
2019-01-20T00:38:24.301Z,-2.30
2019-01-20T00:41:00.933Z,-2.30
2019-01-20T00:43:33.258Z,-2.30
2019-01-20T00:46:06.089Z,-2.40
2019-01-20T00:48:39.228Z,-2.50
2019-01-20T00:51:15.066Z,-2.50
2019-01-20T00:53:43.976Z,-2.60
2019-01-20T00:56:13.379Z,-2.70
2019-01-20T00:58:42.812Z,-2.90
2019-01-20T01:01:12.203Z,-3.00
2019-01-20T01:03:41.627Z,-3.00
2019-01-20T01:06:11.023Z,-3.00
2019-01-20T01:08:40.527Z,-3.00
2019-01-20T01:11:09.965Z,-2.90
2019-01-20T01:13:39.427Z,-2.90
2019-01-20T01:16:08.855Z,-3.10
2019-01-20T01:18:38.224Z,-3.10
2019-01-20T01:21:07.682Z,-3.10
2019-01-20T01:23:37.091Z,-3.10
2019-01-20T01:26:06.468Z,-3.10
2019-01-20T01:28:35.855Z,-3.00
2019-01-20T01:31:05.351Z,-2.90
2019-01-20T01:33:34.791Z,-2.90
2019-01-20T01:36:04.219Z,-2.90
2019-01-20T01:38:33.636Z,-2.90
2019-01-20T01:41:03.015Z,-2.90
2019-01-20T01:43:32.439Z,-2.90
2019-01-20T01:46:01.839Z,-2.90
2019-01-20T01:48:31.261Z,-2.90
2019-01-20T01:51:00.667Z,-2.80
2019-01-20T01:53:30.055Z,-2.80
2019-01-20T01:55:59.578Z,-2.80
2019-01-20T01:58:28.886Z,-2.70
2019-01-20T02:00:58.299Z,-2.80
2019-01-20T02:03:27.706Z,-2.90
2019-01-20T02:05:57.197Z,-2.90
2019-01-20T02:08:26.575Z,-3.10
2019-01-20T02:10:55.975Z,-3.10
2019-01-20T02:13:25.319Z,-3.20
2019-01-20T02:15:54.703Z,-3.20
2019-01-20T02:18:24.119Z,-3.20
2019-01-20T02:20:53.511Z,-3.20
2019-01-20T02:23:22.944Z,-3.20
2019-01-20T02:25:52.703Z,-3.30
2019-01-20T02:28:22.204Z,-3.30
2019-01-20T02:30:51.587Z,-3.20
2019-01-20T02:33:20.983Z,-3.20
2019-01-20T02:35:50.407Z,-3.30
2019-01-20T02:38:19.844Z,-3.30
2019-01-20T02:40:49.276Z,-3.40
2019-01-20T02:43:18.659Z,-3.40
2019-01-20T02:45:48.085Z,-3.40
2019-01-20T02:48:17.585Z,-3.30
2019-01-20T02:50:47.359Z,-3.30
2019-01-20T02:53:16.752Z,-3.30
2019-01-20T02:55:46.157Z,-3.30
2019-01-20T02:58:15.563Z,-3.40
2019-01-20T03:00:44.952Z,-3.50
2019-01-20T03:03:14.393Z,-3.60
2019-01-20T03:05:43.798Z,-3.70
2019-01-20T03:08:13.544Z,-3.80
2019-01-20T03:10:42.907Z,-3.80
2019-01-20T03:13:12.301Z,-3.80
2019-01-20T03:15:41.731Z,-3.80
2019-01-20T03:18:11.115Z,-3.80
2019-01-20T03:20:40.545Z,-3.70
2019-01-20T03:23:09.944Z,-3.80
2019-01-20T03:25:39.390Z,-3.80
2019-01-20T03:28:08.814Z,-3.80
2019-01-20T03:30:38.198Z,-3.90
2019-01-20T03:33:07.597Z,-4.00
2019-01-20T03:35:37.030Z,-4.00
2019-01-20T03:38:06.415Z,-4.10
2019-01-20T03:40:35.803Z,-4.20
2019-01-20T03:43:05.228Z,-4.20
2019-01-20T03:45:34.616Z,-4.20
2019-01-20T03:48:04.003Z,-4.20
2019-01-20T03:50:33.434Z,-4.10
2019-01-20T03:53:02.820Z,-4.10
2019-01-20T03:55:32.239Z,-4.10
2019-01-20T03:58:01.624Z,-4.10
2019-01-20T04:00:31.140Z,-4.00
2019-01-20T04:03:02.592Z,-4.00
2019-01-20T04:05:31.987Z,-4.00
2019-01-20T04:08:01.697Z,-4.00
2019-01-20T04:10:31.099Z,-4.00
2019-01-20T04:13:00.519Z,-3.90
2019-01-20T04:15:30.039Z,-3.90
2019-01-20T04:17:59.460Z,-3.90
2019-01-20T04:20:29.098Z,-3.90
2019-01-20T04:22:58.598Z,-3.80
2019-01-20T04:25:27.977Z,-3.80
2019-01-20T04:27:57.396Z,-3.80
2019-01-20T04:30:26.810Z,-3.80
2019-01-20T04:32:56.185Z,-3.70
2019-01-20T04:35:25.604Z,-3.60
2019-01-20T04:37:55.047Z,-3.60
2019-01-20T04:40:24.867Z,-3.60
2019-01-20T04:42:54.277Z,-3.60
2019-01-20T04:45:23.687Z,-3.60
2019-01-20T04:47:52.987Z,-3.60
2019-01-20T04:50:23.818Z,-3.70
2019-01-20T04:52:53.447Z,-3.80
2019-01-20T04:55:22.826Z,-3.90
2019-01-20T04:57:54.174Z,-4.00
2019-01-20T05:00:25.276Z,-4.00
2019-01-20T05:02:54.721Z,-4.00
2019-01-20T05:05:24.353Z,-4.00
2019-01-20T05:07:53.724Z,-3.90
2019-01-20T05:10:23.143Z,-3.90
2019-01-20T05:12:52.456Z,-3.90
2019-01-20T05:15:23.794Z,-3.90
2019-01-20T05:17:53.207Z,-4.00
2019-01-20T05:20:22.692Z,-4.00
2019-01-20T05:22:52.075Z,-3.90
2019-01-20T05:25:21.455Z,-4.00
2019-01-20T05:27:51.035Z,-4.10
2019-01-20T05:30:22.719Z,-4.10
2019-01-20T05:32:52.150Z,-4.20
2019-01-20T05:35:21.537Z,-4.10
2019-01-20T05:37:50.938Z,-4.20
2019-01-20T05:40:20.704Z,-4.20
2019-01-20T05:42:50.088Z,-4.20
2019-01-20T05:45:24.710Z,-4.20
2019-01-20T05:47:54.068Z,-4.10
2019-01-20T05:50:23.458Z,-4.00
2019-01-20T05:52:52.843Z,-3.90
2019-01-20T05:55:22.276Z,-3.80
2019-01-20T05:57:51.655Z,-3.80
2019-01-20T06:00:26.098Z,-3.70
2019-01-20T06:02:55.505Z,-3.70
2019-01-20T06:05:24.894Z,-3.60
2019-01-20T06:07:54.303Z,-3.70
2019-01-20T06:10:23.686Z,-3.70
2019-01-20T06:12:54.183Z,-3.90
2019-01-20T06:15:24.588Z,-3.90
2019-01-20T06:17:53.962Z,-4.00
2019-01-20T06:20:23.387Z,-4.00
2019-01-20T06:22:52.779Z,-4.00
2019-01-20T06:25:22.187Z,-4.10
2019-01-20T06:27:51.573Z,-4.10
2019-01-20T06:30:26.403Z,-4.20
2019-01-20T06:32:55.795Z,-4.20
2019-01-20T06:35:25.179Z,-4.30
2019-01-20T06:37:54.602Z,-4.20
2019-01-20T06:40:24.068Z,-4.10
2019-01-20T06:42:53.497Z,-4.00
2019-01-20T06:45:22.879Z,-4.00
2019-01-20T06:47:52.288Z,-3.90
2019-01-20T06:50:22.110Z,-3.90
2019-01-20T06:52:51.443Z,-3.80
2019-01-20T06:55:21.771Z,-3.80
2019-01-20T06:57:51.247Z,-3.80
2019-01-20T07:00:22.336Z,-3.80
2019-01-20T07:02:51.719Z,-3.90
2019-01-20T07:05:21.147Z,-4.00
2019-01-20T07:07:50.560Z,-4.00
2019-01-20T07:10:20.352Z,-4.10
2019-01-20T07:12:49.839Z,-4.10
2019-01-20T07:15:21.380Z,-4.20
2019-01-20T07:17:50.778Z,-4.20
2019-01-20T07:20:20.277Z,-4.30
2019-01-20T07:22:49.700Z,-4.40
2019-01-20T07:25:19.082Z,-4.40
2019-01-20T07:27:48.435Z,-4.40
2019-01-20T07:30:24.548Z,-4.40
2019-01-20T07:32:54.047Z,-4.30
2019-01-20T07:35:23.453Z,-4.20
2019-01-20T07:37:52.855Z,-4.00
2019-01-20T07:40:23.695Z,-4.00
2019-01-20T07:42:53.234Z,-4.00
2019-01-20T07:45:22.679Z,-4.00
2019-01-20T07:47:52.066Z,-4.10
2019-01-20T07:50:27.839Z,-4.20
2019-01-20T07:52:57.232Z,-4.20
2019-01-20T07:55:26.656Z,-4.30
2019-01-20T07:57:56.032Z,-4.20
2019-01-20T08:00:26.295Z,-4.10
2019-01-20T08:02:55.695Z,-4.10
2019-01-20T08:05:25.083Z,-4.10
2019-01-20T08:07:54.491Z,-4.20
2019-01-20T08:10:28.379Z,-4.30
2019-01-20T08:12:57.984Z,-4.40
2019-01-20T08:15:27.387Z,-4.50
2019-01-20T08:17:56.775Z,-4.60
2019-01-20T08:20:26.351Z,-4.50
2019-01-20T08:22:55.772Z,-4.50
2019-01-20T08:25:25.169Z,-4.50
2019-01-20T08:27:54.660Z,-4.40
2019-01-20T08:30:25.999Z,-4.40
2019-01-20T08:32:55.551Z,-4.30
2019-01-20T08:35:25.136Z,-4.10
2019-01-20T08:37:54.641Z,-4.10
2019-01-20T08:40:26.303Z,-4.00
2019-01-20T08:42:55.740Z,-3.90
2019-01-20T08:45:48.029Z,-3.90
2019-01-20T08:48:19.596Z,-3.90
2019-01-20T08:50:49.180Z,-4.10
2019-01-20T08:53:18.592Z,-4.10
2019-01-20T08:55:47.987Z,-4.10
2019-01-20T08:58:17.413Z,-4.20
2019-01-20T09:00:46.797Z,-4.20
2019-01-20T09:03:16.199Z,-4.10
2019-01-20T09:05:45.611Z,-4.20
2019-01-20T09:08:15.007Z,-4.20
2019-01-20T09:10:44.404Z,-4.20
2019-01-20T09:13:13.904Z,-4.10
2019-01-20T09:15:43.315Z,-3.90
2019-01-20T09:18:12.707Z,-3.80
2019-01-20T09:20:42.133Z,-3.60
2019-01-20T09:23:11.515Z,-3.30
2019-01-20T09:25:40.905Z,-3.30
2019-01-20T09:28:10.323Z,-3.10
2019-01-20T09:30:39.856Z,-3.10
2019-01-20T09:33:09.274Z,-3.10
2019-01-20T09:35:38.667Z,-3.20
2019-01-20T09:38:08.135Z,-3.30
2019-01-20T09:40:37.576Z,-3.20
2019-01-20T09:43:06.955Z,-3.20
2019-01-20T09:45:36.748Z,-2.90
2019-01-20T09:48:06.218Z,-2.80
2019-01-20T09:50:35.620Z,-2.70
2019-01-20T09:53:05.115Z,-2.60
2019-01-20T09:55:34.531Z,-2.40
2019-01-20T09:58:03.868Z,-2.30
2019-01-20T10:00:33.602Z,-2.00
2019-01-20T10:03:03.004Z,-1.90
2019-01-20T10:05:32.537Z,-1.80
2019-01-20T10:08:01.960Z,-1.70
2019-01-20T10:10:31.279Z,-1.60
2019-01-20T10:13:00.711Z,-1.60
2019-01-20T10:15:30.144Z,-1.50
2019-01-20T10:17:59.545Z,-1.30
2019-01-20T10:20:30.479Z,-1.20
2019-01-20T10:22:59.995Z,-1.10
2019-01-20T10:25:29.419Z,-1.10
2019-01-20T10:27:58.827Z,-1.00
2019-01-20T10:30:33.041Z,-0.90
2019-01-20T10:33:03.476Z,-0.70
2019-01-20T10:35:46.471Z,-0.60
2019-01-20T10:38:15.971Z,-0.60
2019-01-20T10:40:45.424Z,-0.60
2019-01-20T10:43:15.612Z,-0.40
2019-01-20T10:45:45.007Z,-0.30
2019-01-20T10:48:14.425Z,-0.10
2019-01-20T10:50:43.822Z,0.10
2019-01-20T10:53:13.223Z,0.30
2019-01-20T10:55:42.555Z,0.50
2019-01-20T10:58:11.930Z,0.50
2019-01-20T11:00:42.223Z,0.60
2019-01-20T11:03:11.616Z,0.70
2019-01-20T11:05:41.051Z,0.90
2019-01-20T11:08:10.417Z,1.00
2019-01-20T11:10:40.089Z,1.00
2019-01-20T11:13:10.739Z,0.90
2019-01-20T11:15:40.152Z,0.90
2019-01-20T11:18:09.529Z,1.00
2019-01-20T11:20:38.908Z,1.00
2019-01-20T11:23:08.423Z,0.80
2019-01-20T11:25:42.701Z,0.60
2019-01-20T11:28:12.408Z,0.50
2019-01-20T11:30:41.817Z,0.70
2019-01-20T11:33:11.210Z,0.90
2019-01-20T11:35:40.643Z,1.00
2019-01-20T11:38:10.151Z,1.00
2019-01-20T11:40:39.598Z,1.00
2019-01-20T11:43:09.003Z,1.10
2019-01-20T11:45:38.427Z,1.20
2019-01-20T11:48:08.020Z,1.40
2019-01-20T11:50:37.430Z,1.50
2019-01-20T11:53:06.814Z,1.60
2019-01-20T11:55:36.581Z,1.80
2019-01-20T11:58:05.985Z,2.00
2019-01-20T12:00:37.111Z,2.10
2019-01-20T12:03:07.743Z,2.20
2019-01-20T12:05:39.079Z,2.10
2019-01-20T12:08:08.632Z,2.20
2019-01-20T12:10:38.012Z,2.30
2019-01-20T12:13:09.358Z,2.50
2019-01-20T12:15:38.740Z,2.60
2019-01-20T12:18:08.148Z,2.70
2019-01-20T12:20:37.552Z,2.80
2019-01-20T12:23:06.947Z,2.90
2019-01-20T12:25:36.638Z,2.80
2019-01-20T12:28:06.114Z,2.70
2019-01-20T12:30:37.363Z,2.70
2019-01-20T12:33:07.199Z,2.70
2019-01-20T12:35:36.799Z,2.70
2019-01-20T12:38:06.191Z,2.70
2019-01-20T12:40:38.496Z,2.60
2019-01-20T12:43:07.896Z,2.50
2019-01-20T12:45:37.267Z,2.40
2019-01-20T12:48:06.719Z,2.40
2019-01-20T12:50:36.113Z,2.30
2019-01-20T12:53:05.843Z,2.20
2019-01-20T12:55:35.568Z,2.10
2019-01-20T12:58:05.233Z,2.10
2019-01-20T13:00:34.611Z,2.10
2019-01-20T13:03:04.033Z,2.10
2019-01-20T13:05:33.507Z,2.00
2019-01-20T13:08:02.911Z,1.90
2019-01-20T13:10:32.292Z,1.80
2019-01-20T13:13:01.727Z,1.80
2019-01-20T13:15:31.124Z,1.90
2019-01-20T13:18:00.841Z,1.90
2019-01-20T13:20:30.262Z,2.00
2019-01-20T13:22:59.648Z,2.00
2019-01-20T13:25:30.638Z,1.90
2019-01-20T13:28:00.047Z,1.90
2019-01-20T13:30:30.162Z,1.90
2019-01-20T13:32:59.560Z,1.90
2019-01-20T13:35:29.703Z,2.00
2019-01-20T13:38:02.070Z,2.00
2019-01-20T13:40:43.418Z,2.00
2019-01-20T13:43:12.833Z,1.90
2019-01-20T13:45:42.216Z,1.90
2019-01-20T13:48:11.639Z,1.90
2019-01-20T13:50:41.003Z,1.90
2019-01-20T13:53:10.451Z,2.00
2019-01-20T13:55:39.861Z,2.00
2019-01-20T13:58:09.239Z,2.10
2019-01-20T14:00:38.651Z,2.20
2019-01-20T14:03:08.047Z,2.30
2019-01-20T14:05:37.468Z,2.30
2019-01-20T14:08:06.852Z,2.40
2019-01-20T14:10:36.280Z,2.50
2019-01-20T14:13:05.791Z,2.50
2019-01-20T14:15:35.171Z,2.50
2019-01-20T14:18:04.587Z,2.40
2019-01-20T14:20:33.975Z,2.40
2019-01-20T14:23:03.387Z,2.50
2019-01-20T14:25:32.771Z,2.50
2019-01-20T14:28:02.139Z,2.50
2019-01-20T14:30:31.811Z,2.60
2019-01-20T14:33:01.344Z,2.50
2019-01-20T14:35:30.732Z,2.50
2019-01-20T14:38:00.123Z,2.40
2019-01-20T14:40:29.547Z,2.40
2019-01-20T14:42:58.985Z,2.30
2019-01-20T14:45:28.395Z,2.20
2019-01-20T14:47:57.769Z,2.20
2019-01-20T14:50:27.597Z,2.20
2019-01-20T14:52:56.980Z,2.20
2019-01-20T14:55:26.479Z,2.20
2019-01-20T14:57:55.905Z,2.20
2019-01-20T15:00:31.541Z,2.10
2019-01-20T15:03:00.928Z,2.10
2019-01-20T15:05:30.421Z,2.00
2019-01-20T15:07:59.943Z,2.00
2019-01-20T15:10:29.343Z,1.90
2019-01-20T15:12:58.752Z,1.90
2019-01-20T15:15:31.587Z,1.90
2019-01-20T15:18:01.086Z,2.00
2019-01-20T15:20:30.401Z,2.00
2019-01-20T15:22:59.787Z,2.00
2019-01-20T15:25:29.194Z,2.00
2019-01-20T15:27:58.839Z,2.10
2019-01-20T15:30:29.759Z,2.10
2019-01-20T15:33:00.218Z,2.20
2019-01-20T15:35:29.649Z,2.10
2019-01-20T15:37:59.033Z,2.10
2019-01-20T15:40:28.616Z,2.00
2019-01-20T15:42:58.031Z,1.90
2019-01-20T15:45:27.458Z,1.90
2019-01-20T15:47:56.871Z,1.90
2019-01-20T15:50:30.591Z,1.90
2019-01-20T15:53:01.711Z,1.90
2019-01-20T15:55:31.098Z,1.90
2019-01-20T15:58:00.483Z,1.90
2019-01-20T16:00:33.039Z,1.90
2019-01-20T16:03:02.435Z,1.80
2019-01-20T16:05:31.835Z,1.60
2019-01-20T16:08:01.228Z,1.60
2019-01-20T16:10:30.639Z,1.60
2019-01-20T16:13:00.038Z,1.50
2019-01-20T16:15:32.128Z,1.50
2019-01-20T16:18:01.553Z,1.50
2019-01-20T16:20:32.058Z,1.50
2019-01-20T16:23:02.307Z,1.50
2019-01-20T16:25:34.019Z,1.60
2019-01-20T16:28:03.445Z,1.60
2019-01-20T16:30:34.780Z,1.60
2019-01-20T16:33:04.418Z,1.50
2019-01-20T16:35:33.836Z,1.40
2019-01-20T16:38:04.301Z,1.40
2019-01-20T16:40:34.622Z,1.40
2019-01-20T16:43:04.333Z,1.40
2019-01-20T16:45:47.330Z,1.30
2019-01-20T16:48:16.742Z,1.30
2019-01-20T16:50:46.129Z,1.30
2019-01-20T16:53:15.509Z,1.30
2019-01-20T16:55:44.920Z,1.20
2019-01-20T16:58:14.343Z,1.20
2019-01-20T17:00:45.283Z,1.20
2019-01-20T17:03:15.022Z,1.30
2019-01-20T17:05:44.469Z,1.30
2019-01-20T17:08:13.859Z,1.30
2019-01-20T17:10:43.825Z,1.30
2019-01-20T17:13:13.491Z,1.40
2019-01-20T17:15:44.548Z,1.40
2019-01-20T17:18:15.378Z,1.40
2019-01-20T17:20:44.918Z,1.40
2019-01-20T17:23:14.356Z,1.40
2019-01-20T17:25:43.771Z,1.40
2019-01-20T17:28:13.144Z,1.40
2019-01-20T17:30:42.996Z,1.40
2019-01-20T17:33:13.464Z,1.50
2019-01-20T17:35:42.876Z,1.40
2019-01-20T17:38:12.305Z,1.40
2019-01-20T17:40:41.675Z,1.40
2019-01-20T17:43:11.088Z,1.40
2019-01-20T17:45:47.714Z,1.40
2019-01-20T17:48:14.170Z,1.30
2019-01-20T17:50:44.668Z,1.20
2019-01-20T17:53:14.404Z,1.20
2019-01-20T17:55:43.819Z,1.20
2019-01-20T17:58:13.215Z,1.30
2019-01-20T18:01:02.932Z,1.30
2019-01-20T18:03:32.368Z,1.40
2019-01-20T18:06:01.838Z,1.40
2019-01-20T18:08:31.231Z,1.30
2019-01-20T18:11:00.633Z,1.20
2019-01-20T18:13:30.028Z,1.20
2019-01-20T18:15:59.407Z,1.20
2019-01-20T18:18:28.795Z,1.30
2019-01-20T18:20:58.212Z,1.20
2019-01-20T18:23:27.599Z,1.10
2019-01-20T18:25:57.107Z,1.20
2019-01-20T18:28:26.495Z,1.20
2019-01-20T18:30:55.875Z,1.30
2019-01-20T18:33:25.285Z,1.30
2019-01-20T18:35:54.702Z,1.40
2019-01-20T18:38:24.099Z,1.20
2019-01-20T18:40:53.474Z,1.10
2019-01-20T18:43:22.876Z,1.10
2019-01-20T18:45:52.288Z,1.00
2019-01-20T18:48:21.807Z,1.00
2019-01-20T18:50:51.359Z,1.10
2019-01-20T18:53:20.847Z,1.10
2019-01-20T18:55:50.244Z,1.10
2019-01-20T18:58:19.644Z,1.20
2019-01-20T19:00:51.005Z,1.20
2019-01-20T19:03:21.045Z,1.20
2019-01-20T19:05:50.899Z,1.30
2019-01-20T19:08:20.711Z,1.30
2019-01-20T19:10:50.115Z,1.40
2019-01-20T19:13:19.504Z,1.40
2019-01-20T19:15:48.927Z,1.40
2019-01-20T19:18:19.093Z,1.40
2019-01-20T19:20:48.831Z,1.40
2019-01-20T19:23:18.198Z,1.40
2019-01-20T19:25:47.599Z,1.50
2019-01-20T19:28:17.013Z,1.50
2019-01-20T19:30:46.400Z,1.40
2019-01-20T19:33:15.779Z,1.40
2019-01-20T19:35:45.216Z,1.40
2019-01-20T19:38:14.613Z,1.50
2019-01-20T19:40:44.007Z,1.50
2019-01-20T19:43:13.388Z,1.50
2019-01-20T19:45:42.840Z,1.40
2019-01-20T19:48:19.884Z,1.40
2019-01-20T19:50:43.290Z,1.30
2019-01-20T19:53:12.671Z,1.20
2019-01-20T19:55:42.098Z,1.20
2019-01-20T19:58:11.424Z,1.20
2019-01-20T20:00:40.811Z,1.30
2019-01-20T20:03:10.275Z,1.30
2019-01-20T20:05:39.688Z,1.40
2019-01-20T20:08:09.067Z,1.40
2019-01-20T20:10:38.469Z,1.40
2019-01-20T20:13:07.857Z,1.40
2019-01-20T20:15:37.352Z,1.40
2019-01-20T20:18:07.048Z,1.40
2019-01-20T20:20:36.430Z,1.30
2019-01-20T20:23:05.868Z,1.20
2019-01-20T20:25:36.188Z,1.20
2019-01-20T20:28:05.739Z,1.30
2019-01-20T20:30:36.912Z,1.30
2019-01-20T20:33:06.777Z,1.40
2019-01-20T20:35:36.262Z,1.30
2019-01-20T20:38:05.676Z,1.30
2019-01-20T20:40:35.127Z,1.30
2019-01-20T20:43:04.519Z,1.30
2019-01-20T20:45:33.958Z,1.30
2019-01-20T20:48:03.401Z,1.30
2019-01-20T20:50:32.885Z,1.40
2019-01-20T20:53:02.320Z,1.40
2019-01-20T20:55:31.692Z,1.40
2019-01-20T20:58:01.105Z,1.40
2019-01-20T21:00:36.362Z,1.50
2019-01-20T21:03:12.453Z,1.50
2019-01-20T21:05:41.835Z,1.50
2019-01-20T21:08:11.235Z,1.40
2019-01-20T21:10:40.629Z,1.30
2019-01-20T21:13:10.124Z,1.30
2019-01-20T21:15:39.551Z,1.30
2019-01-20T21:18:08.961Z,1.30
2019-01-20T21:20:38.386Z,1.30
2019-01-20T21:23:12.088Z,1.40
2019-01-20T21:25:39.792Z,1.30
2019-01-20T21:28:09.123Z,1.30
2019-01-20T21:30:39.312Z,1.20
2019-01-20T21:33:08.713Z,1.20
2019-01-20T21:35:38.101Z,1.10
2019-01-20T21:38:07.543Z,1.10
2019-01-20T21:40:36.915Z,1.10
2019-01-20T21:43:06.345Z,1.00
2019-01-20T21:45:35.700Z,1.10
2019-01-20T21:48:05.152Z,1.00
2019-01-20T21:50:34.536Z,0.90
2019-01-20T21:53:04.042Z,1.00
2019-01-20T21:55:33.463Z,1.00
2019-01-20T21:58:02.931Z,1.10
2019-01-20T22:00:32.304Z,1.10
2019-01-20T22:03:01.696Z,1.00
2019-01-20T22:05:31.083Z,1.00
2019-01-20T22:08:00.458Z,1.00
2019-01-20T22:10:29.863Z,1.00
2019-01-20T22:12:59.251Z,1.00
2019-01-20T22:15:28.672Z,1.00
2019-01-20T22:17:58.255Z,1.10
2019-01-20T22:20:27.852Z,1.10
2019-01-20T22:22:57.241Z,1.10
2019-01-20T22:25:26.669Z,1.00
2019-01-20T22:27:56.044Z,1.00
2019-01-20T22:30:27.064Z,1.10
2019-01-20T22:32:56.464Z,1.10
2019-01-20T22:35:25.848Z,1.10
2019-01-20T22:37:55.269Z,1.20
2019-01-20T22:40:24.664Z,1.20
2019-01-20T22:42:54.068Z,1.20
2019-01-20T22:45:25.432Z,1.20
2019-01-20T22:47:54.902Z,1.20
2019-01-20T22:50:24.462Z,1.20
2019-01-20T22:52:53.922Z,1.10
2019-01-20T22:55:23.311Z,1.00
2019-01-20T22:57:52.732Z,0.90
2019-01-20T23:01:00.306Z,1.00
2019-01-20T23:03:30.231Z,1.00
2019-01-20T23:05:59.675Z,1.00
2019-01-20T23:08:29.212Z,0.90
2019-01-20T23:10:58.575Z,0.90
2019-01-20T23:13:27.871Z,0.80
2019-01-20T23:15:57.277Z,0.80
2019-01-20T23:18:26.670Z,0.80
2019-01-20T23:20:56.155Z,0.90
2019-01-20T23:23:25.527Z,0.90
2019-01-20T23:25:54.912Z,0.90
2019-01-20T23:28:24.333Z,0.90
2019-01-20T23:30:53.718Z,0.80
2019-01-20T23:33:23.125Z,0.80
2019-01-20T23:35:52.523Z,0.80
2019-01-20T23:38:21.976Z,0.90
2019-01-20T23:40:51.360Z,0.90
2019-01-20T23:43:20.727Z,0.90
2019-01-20T23:45:50.240Z,0.90
2019-01-20T23:48:19.664Z,0.90
2019-01-20T23:50:49.076Z,1.00
2019-01-20T23:53:18.459Z,0.90
2019-01-20T23:55:47.859Z,0.90
2019-01-20T23:58:17.247Z,0.90
